sensor_id;sensor_type;location;lat;lon;timestamp;P1;durP1;ratioP1;P2;durP2;ratioP2
37284;SDS011;23172;53.550;9.964;2023-08-01T00:04:45;3.85;;;3.53;;
37284;SDS011;23172;53.550;9.964;2023-08-01T00:09:49;3.77;;;3.47;;
37284;SDS011;23172;53.550;9.964;2023-08-01T00:14:51;5.20;;;4.70;;
37284;SDS011;23172;53.550;9.964;2023-08-01T00:19:53;5.82;;;5.32;;
37284;SDS011;23172;53.550;9.964;2023-08-01T00:24:57;6.07;;;5.57;;
37284;SDS011;23172;53.550;9.964;2023-08-01T00:29:59;4.60;;;4.20;;
37284;SDS011;23172;53.550;9.964;2023-08-01T00:35:01;3.20;;;3.00;;
37284;SDS011;23172;53.550;9.964;2023-08-01T00:40:06;3.30;;;3.03;;
37284;SDS011;23172;53.550;9.964;2023-08-01T00:45:09;3.40;;;2.87;;
37284;SDS011;23172;53.550;9.964;2023-08-01T00:50:11;2.90;;;2.70;;
37284;SDS011;23172;53.550;9.964;2023-08-01T00:55:15;3.53;;;3.23;;
37284;SDS011;23172;53.550;9.964;2023-08-01T01:00:17;3.77;;;3.47;;
37284;SDS011;23172;53.550;9.964;2023-08-01T01:05:19;4.38;;;4.00;;
37284;SDS011;23172;53.550;9.964;2023-08-01T01:10:23;4.40;;;4.10;;
37284;SDS011;23172;53.550;9.964;2023-08-01T01:15:25;5.93;;;5.43;;
37284;SDS011;23172;53.550;9.964;2023-08-01T01:20:31;5.57;;;5.07;;
37284;SDS011;23172;53.550;9.964;2023-08-01T01:25:34;5.20;;;4.80;;
37284;SDS011;23172;53.550;9.964;2023-08-01T01:30:36;5.80;;;5.30;;
37284;SDS011;23172;53.550;9.964;2023-08-01T01:35:40;5.75;;;5.28;;
37284;SDS011;23172;53.550;9.964;2023-08-01T01:40:42;5.80;;;5.30;;
37284;SDS011;23172;53.550;9.964;2023-08-01T01:45:45;5.50;;;5.10;;
37284;SDS011;23172;53.550;9.964;2023-08-01T01:50:48;6.73;;;6.13;;
37284;SDS011;23172;53.550;9.964;2023-08-01T01:55:50;7.82;;;7.20;;
37284;SDS011;23172;53.550;9.964;2023-08-01T02:00:52;6.80;;;6.20;;
37284;SDS011;23172;53.550;9.964;2023-08-01T02:05:56;6.00;;;5.50;;
37284;SDS011;23172;53.550;9.964;2023-08-01T02:10:58;7.38;;;6.78;;
37284;SDS011;23172;53.550;9.964;2023-08-01T02:16:00;7.40;;;6.80;;
37284;SDS011;23172;53.550;9.964;2023-08-01T02:21:04;6.50;;;6.00;;
37284;SDS011;23172;53.550;9.964;2023-08-01T02:26:06;7.25;;;6.63;;
37284;SDS011;23172;53.550;9.964;2023-08-01T02:31:08;7.60;;;7.00;;
37284;SDS011;23172;53.550;9.964;2023-08-01T02:36:12;8.10;;;7.30;;
37284;SDS011;23172;53.550;9.964;2023-08-01T02:41:14;8.35;;;7.65;;
37284;SDS011;23172;53.550;9.964;2023-08-01T02:46:16;9.83;;;9.03;;
37284;SDS011;23172;53.550;9.964;2023-08-01T02:51:19;9.60;;;8.70;;
37284;SDS011;23172;53.550;9.964;2023-08-01T02:56:22;9.65;;;8.85;;
37284;SDS011;23172;53.550;9.964;2023-08-01T03:01:24;10.18;;;9.38;;
37284;SDS011;23172;53.550;9.964;2023-08-01T03:06:27;9.20;;;8.30;;
37284;SDS011;23172;53.550;9.964;2023-08-01T03:11:29;9.30;;;8.40;;
37284;SDS011;23172;53.550;9.964;2023-08-01T03:16:32;9.60;;;8.77;;
37284;SDS011;23172;53.550;9.964;2023-08-01T03:21:35;9.43;;;8.63;;
37284;SDS011;23172;53.550;9.964;2023-08-01T03:26:37;10.80;;;9.73;;
37284;SDS011;23172;53.550;9.964;2023-08-01T03:31:39;9.63;;;8.80;;
37284;SDS011;23172;53.550;9.964;2023-08-01T03:36:43;10.20;;;9.25;;
37284;SDS011;23172;53.550;9.964;2023-08-01T03:41:45;9.73;;;8.82;;
37284;SDS011;23172;53.550;9.964;2023-08-01T03:46:47;9.25;;;8.45;;
37284;SDS011;23172;53.550;9.964;2023-08-01T03:51:51;9.45;;;8.55;;
37284;SDS011;23172;53.550;9.964;2023-08-01T03:56:53;11.00;;;10.00;;
37284;SDS011;23172;53.550;9.964;2023-08-01T04:01:55;10.40;;;9.50;;
37284;SDS011;23172;53.550;9.964;2023-08-01T04:06:58;10.82;;;9.82;;
37284;SDS011;23172;53.550;9.964;2023-08-01T04:12:01;10.27;;;9.38;;
37284;SDS011;23172;53.550;9.964;2023-08-01T04:17:03;9.38;;;8.57;;
37284;SDS011;23172;53.550;9.964;2023-08-01T04:22:06;10.00;;;9.20;;
37284;SDS011;23172;53.550;9.964;2023-08-01T04:27:09;11.25;;;10.18;;
37284;SDS011;23172;53.550;9.964;2023-08-01T04:32:11;10.83;;;9.83;;
37284;SDS011;23172;53.550;9.964;2023-08-01T04:37:17;10.77;;;9.80;;
37284;SDS011;23172;53.550;9.964;2023-08-01T04:42:20;10.38;;;9.45;;
37284;SDS011;23172;53.550;9.964;2023-08-01T04:47:23;10.82;;;9.75;;
37284;SDS011;23172;53.550;9.964;2023-08-01T04:52:27;10.20;;;9.35;;
37284;SDS011;23172;53.550;9.964;2023-08-01T04:57:29;11.03;;;9.80;;
37284;SDS011;23172;53.550;9.964;2023-08-01T05:02:31;10.30;;;9.30;;
37284;SDS011;23172;53.550;9.964;2023-08-01T05:07:34;11.52;;;10.40;;
37284;SDS011;23172;53.550;9.964;2023-08-01T05:12:36;14.83;;;13.40;;
37284;SDS011;23172;53.550;9.964;2023-08-01T05:17:39;12.90;;;11.57;;
37284;SDS011;23172;53.550;9.964;2023-08-01T05:22:42;14.00;;;12.57;;
37284;SDS011;23172;53.550;9.964;2023-08-01T05:27:44;12.45;;;11.30;;
37284;SDS011;23172;53.550;9.964;2023-08-01T05:32:46;12.73;;;9.67;;
37284;SDS011;23172;53.550;9.964;2023-08-01T05:37:50;11.03;;;8.50;;
37284;SDS011;23172;53.550;9.964;2023-08-01T05:42:52;8.23;;;6.85;;
37284;SDS011;23172;53.550;9.964;2023-08-01T05:47:54;8.60;;;7.03;;
37284;SDS011;23172;53.550;9.964;2023-08-01T05:52:58;10.03;;;7.13;;
37284;SDS011;23172;53.550;9.964;2023-08-01T05:58:00;8.43;;;6.63;;
37284;SDS011;23172;53.550;9.964;2023-08-01T06:03:02;8.23;;;7.20;;
37284;SDS011;23172;53.550;9.964;2023-08-01T06:08:06;9.00;;;6.60;;
37284;SDS011;23172;53.550;9.964;2023-08-01T06:13:09;8.45;;;6.50;;
37284;SDS011;23172;53.550;9.964;2023-08-01T06:18:11;8.52;;;6.32;;
37284;SDS011;23172;53.550;9.964;2023-08-01T06:23:14;9.30;;;7.87;;
37284;SDS011;23172;53.550;9.964;2023-08-01T06:28:16;9.32;;;6.57;;
37284;SDS011;23172;53.550;9.964;2023-08-01T06:33:19;8.52;;;7.20;;
37284;SDS011;23172;53.550;9.964;2023-08-01T06:38:22;6.27;;;5.63;;
37284;SDS011;23172;53.550;9.964;2023-08-01T06:43:25;6.40;;;5.40;;
37284;SDS011;23172;53.550;9.964;2023-08-01T06:48:27;6.80;;;5.20;;
37284;SDS011;23172;53.550;9.964;2023-08-01T06:53:30;4.80;;;4.20;;
37284;SDS011;23172;53.550;9.964;2023-08-01T06:58:32;6.07;;;4.05;;
37284;SDS011;23172;53.550;9.964;2023-08-01T07:03:35;6.47;;;4.30;;
37284;SDS011;23172;53.550;9.964;2023-08-01T07:08:38;5.73;;;3.80;;
37284;SDS011;23172;53.550;9.964;2023-08-01T07:13:40;4.07;;;3.67;;
37284;SDS011;23172;53.550;9.964;2023-08-01T07:18:42;5.70;;;3.92;;
37284;SDS011;23172;53.550;9.964;2023-08-01T07:23:46;4.30;;;3.23;;
37284;SDS011;23172;53.550;9.964;2023-08-01T07:28:49;5.43;;;3.50;;
37284;SDS011;23172;53.550;9.964;2023-08-01T07:33:51;4.83;;;3.40;;
37284;SDS011;23172;53.550;9.964;2023-08-01T07:38:54;5.73;;;3.60;;
37284;SDS011;23172;53.550;9.964;2023-08-01T07:43:56;5.53;;;3.83;;
37284;SDS011;23172;53.550;9.964;2023-08-01T07:48:59;6.53;;;5.28;;
37284;SDS011;23172;53.550;9.964;2023-08-01T07:54:02;5.70;;;3.70;;
37284;SDS011;23172;53.550;9.964;2023-08-01T07:59:04;7.22;;;4.40;;
37284;SDS011;23172;53.550;9.964;2023-08-01T08:04:06;6.63;;;5.75;;
37284;SDS011;23172;53.550;9.964;2023-08-01T08:09:10;10.68;;;9.82;;
37284;SDS011;23172;53.550;9.964;2023-08-01T08:14:12;11.47;;;10.57;;
37284;SDS011;23172;53.550;9.964;2023-08-01T08:19:15;5.73;;;4.40;;
37284;SDS011;23172;53.550;9.964;2023-08-01T08:24:19;8.80;;;8.03;;
37284;SDS011;23172;53.550;9.964;2023-08-01T08:29:21;10.95;;;10.07;;
37284;SDS011;23172;53.550;9.964;2023-08-01T08:34:23;10.52;;;9.82;;
37284;SDS011;23172;53.550;9.964;2023-08-01T08:39:26;10.52;;;9.60;;
37284;SDS011;23172;53.550;9.964;2023-08-01T08:44:29;25.20;;;23.80;;
37284;SDS011;23172;53.550;9.964;2023-08-01T08:49:34;1999.90;;;999.90;;
37284;SDS011;23172;53.550;9.964;2023-08-01T08:54:38;1999.90;;;999.90;;
37284;SDS011;23172;53.550;9.964;2023-08-01T08:59:40;1999.90;;;999.90;;
37284;SDS011;23172;53.550;9.964;2023-08-01T09:04:43;1006.25;;;919.75;;
37284;SDS011;23172;53.550;9.964;2023-08-01T09:09:46;6.72;;;5.32;;
37284;SDS011;23172;53.550;9.964;2023-08-01T09:14:49;6.00;;;5.00;;
37284;SDS011;23172;53.550;9.964;2023-08-01T09:19:55;5.83;;;5.23;;
37284;SDS011;23172;53.550;9.964;2023-08-01T09:24:59;5.13;;;4.63;;
37284;SDS011;23172;53.550;9.964;2023-08-01T09:30:04;4.33;;;3.70;;
37284;SDS011;23172;53.550;9.964;2023-08-01T09:35:07;4.68;;;3.70;;
37284;SDS011;23172;53.550;9.964;2023-08-01T09:40:11;1524.60;;;999.90;;
37284;SDS011;23172;53.550;9.964;2023-08-01T09:45:13;1999.90;;;999.90;;
37284;SDS011;23172;53.550;9.964;2023-08-01T09:50:19;1999.90;;;999.90;;
37284;SDS011;23172;53.550;9.964;2023-08-01T09:55:25;1999.90;;;999.90;;
37284;SDS011;23172;53.550;9.964;2023-08-01T10:00:28;1999.90;;;999.90;;
37284;SDS011;23172;53.550;9.964;2023-08-01T10:05:31;1999.90;;;999.90;;
37284;SDS011;23172;53.550;9.964;2023-08-01T10:10:35;1999.90;;;999.90;;
37284;SDS011;23172;53.550;9.964;2023-08-01T10:15:37;1999.90;;;999.90;;
37284;SDS011;23172;53.550;9.964;2023-08-01T10:20:40;1999.90;;;999.90;;
37284;SDS011;23172;53.550;9.964;2023-08-01T10:25:44;1999.90;;;999.90;;
37284;SDS011;23172;53.550;9.964;2023-08-01T10:30:46;1999.90;;;999.90;;
37284;SDS011;23172;53.550;9.964;2023-08-01T10:35:48;1999.90;;;999.90;;
37284;SDS011;23172;53.550;9.964;2023-08-01T10:40:52;1999.90;;;999.90;;
37284;SDS011;23172;53.550;9.964;2023-08-01T10:46:03;1999.90;;;999.90;;
37284;SDS011;23172;53.550;9.964;2023-08-01T10:51:06;1999.90;;;999.90;;
37284;SDS011;23172;53.550;9.964;2023-08-01T10:56:14;1999.90;;;999.90;;
37284;SDS011;23172;53.550;9.964;2023-08-01T11:01:17;1999.90;;;999.90;;
37284;SDS011;23172;53.550;9.964;2023-08-01T11:06:19;1999.90;;;999.90;;
37284;SDS011;23172;53.550;9.964;2023-08-01T11:11:22;1999.90;;;999.90;;
37284;SDS011;23172;53.550;9.964;2023-08-01T11:16:24;1999.90;;;999.90;;
37284;SDS011;23172;53.550;9.964;2023-08-01T11:21:26;1571.85;;;781.13;;
37284;SDS011;23172;53.550;9.964;2023-08-01T11:26:30;1551.82;;;780.03;;
37284;SDS011;23172;53.550;9.964;2023-08-01T11:31:33;141.32;;;67.78;;
37284;SDS011;23172;53.550;9.964;2023-08-01T11:36:35;118.38;;;72.38;;
37284;SDS011;23172;53.550;9.964;2023-08-01T11:41:39;65.20;;;43.88;;
37284;SDS011;23172;53.550;9.964;2023-08-01T11:46:42;114.35;;;52.13;;
37284;SDS011;23172;53.550;9.964;2023-08-01T11:51:44;2.42;;;1.67;;
37284;SDS011;23172;53.550;9.964;2023-08-01T11:56:48;1.93;;;1.30;;
37284;SDS011;23172;53.550;9.964;2023-08-01T12:01:50;4.70;;;4.43;;
37284;SDS011;23172;53.550;9.964;2023-08-01T12:06:52;1999.90;;;999.90;;
37284;SDS011;23172;53.550;9.964;2023-08-01T12:11:59;1999.90;;;999.90;;
37284;SDS011;23172;53.550;9.964;2023-08-01T12:17:01;1999.90;;;999.90;;
37284;SDS011;23172;53.550;9.964;2023-08-01T12:22:02;1999.90;;;999.90;;
37284;SDS011;23172;53.550;9.964;2023-08-01T12:27:07;1999.90;;;999.90;;
37284;SDS011;23172;53.550;9.964;2023-08-01T12:32:09;1999.90;;;999.90;;
